sensor_id;sensor_type;location;lat;lon;timestamp;P1;durP1;ratioP1;P2;durP2;ratioP2
52047;SDS011;46904;49.438;8.752;2023-11-19T00:01:25;1.27;;;1.08;;
52047;SDS011;46904;49.438;8.752;2023-11-19T00:03:50;0.60;;;0.60;;
52047;SDS011;46904;49.438;8.752;2023-11-19T00:06:16;0.80;;;0.68;;
52047;SDS011;46904;49.438;8.752;2023-11-19T00:08:42;0.75;;;0.75;;
52047;SDS011;46904;49.438;8.752;2023-11-19T00:11:07;0.70;;;0.70;;
52047;SDS011;46904;49.438;8.752;2023-11-19T00:13:33;0.63;;;0.63;;
52047;SDS011;46904;49.438;8.752;2023-11-19T00:15:59;0.55;;;0.55;;
52047;SDS011;46904;49.438;8.752;2023-11-19T00:18:24;0.95;;;0.80;;
52047;SDS011;46904;49.438;8.752;2023-11-19T00:20:50;1.17;;;0.75;;
52047;SDS011;46904;49.438;8.752;2023-11-19T00:23:15;1.10;;;0.65;;
52047;SDS011;46904;49.438;8.752;2023-11-19T00:25:41;0.77;;;0.77;;
52047;SDS011;46904;49.438;8.752;2023-11-19T00:28:06;1.15;;;0.80;;
52047;SDS011;46904;49.438;8.752;2023-11-19T00:30:32;0.50;;;0.50;;
52047;SDS011;46904;49.438;8.752;2023-11-19T00:32:58;0.60;;;0.60;;
52047;SDS011;46904;49.438;8.752;2023-11-19T00:35:23;0.88;;;0.60;;
52047;SDS011;46904;49.438;8.752;2023-11-19T00:37:49;0.88;;;0.65;;
52047;SDS011;46904;49.438;8.752;2023-11-19T00:40:14;0.50;;;0.50;;
52047;SDS011;46904;49.438;8.752;2023-11-19T00:42:40;0.60;;;0.52;;
52047;SDS011;46904;49.438;8.752;2023-11-19T00:45:05;0.50;;;0.50;;
52047;SDS011;46904;49.438;8.752;2023-11-19T00:47:31;0.52;;;0.50;;
52047;SDS011;46904;49.438;8.752;2023-11-19T00:49:56;0.80;;;0.60;;
52047;SDS011;46904;49.438;8.752;2023-11-19T00:52:22;1.75;;;0.47;;
52047;SDS011;46904;49.438;8.752;2023-11-19T00:54:47;2.03;;;0.60;;
52047;SDS011;46904;49.438;8.752;2023-11-19T00:57:13;0.40;;;0.40;;
52047;SDS011;46904;49.438;8.752;2023-11-19T00:59:41;0.40;;;0.40;;
52047;SDS011;46904;49.438;8.752;2023-11-19T01:02:06;1.75;;;0.40;;
52047;SDS011;46904;49.438;8.752;2023-11-19T01:04:35;0.40;;;0.40;;
52047;SDS011;46904;49.438;8.752;2023-11-19T01:07:01;0.40;;;0.40;;
52047;SDS011;46904;49.438;8.752;2023-11-19T01:09:27;0.40;;;0.40;;
52047;SDS011;46904;49.438;8.752;2023-11-19T01:11:53;0.93;;;0.32;;
52047;SDS011;46904;49.438;8.752;2023-11-19T01:14:19;0.35;;;0.32;;
52047;SDS011;46904;49.438;8.752;2023-11-19T01:16:44;0.40;;;0.40;;
52047;SDS011;46904;49.438;8.752;2023-11-19T01:19:10;0.40;;;0.40;;
52047;SDS011;46904;49.438;8.752;2023-11-19T01:21:35;0.55;;;0.40;;
52047;SDS011;46904;49.438;8.752;2023-11-19T01:24:01;0.32;;;0.32;;
52047;SDS011;46904;49.438;8.752;2023-11-19T01:26:26;0.40;;;0.40;;
52047;SDS011;46904;49.438;8.752;2023-11-19T01:28:52;0.40;;;0.40;;
52047;SDS011;46904;49.438;8.752;2023-11-19T01:31:17;0.40;;;0.40;;
52047;SDS011;46904;49.438;8.752;2023-11-19T01:33:43;0.32;;;0.32;;
52047;SDS011;46904;49.438;8.752;2023-11-19T01:36:09;0.55;;;0.40;;
52047;SDS011;46904;49.438;8.752;2023-11-19T01:38:36;0.50;;;0.50;;
52047;SDS011;46904;49.438;8.752;2023-11-19T01:41:01;0.43;;;0.43;;
52047;SDS011;46904;49.438;8.752;2023-11-19T01:45:58;0.60;;;0.40;;
52047;SDS011;46904;49.438;8.752;2023-11-19T01:48:24;0.30;;;0.30;;
52047;SDS011;46904;49.438;8.752;2023-11-19T01:50:49;0.47;;;0.47;;
52047;SDS011;46904;49.438;8.752;2023-11-19T01:53:15;0.60;;;0.60;;
52047;SDS011;46904;49.438;8.752;2023-11-19T01:55:41;0.45;;;0.45;;
52047;SDS011;46904;49.438;8.752;2023-11-19T01:58:07;0.32;;;0.32;;
52047;SDS011;46904;49.438;8.752;2023-11-19T02:00:32;0.40;;;0.40;;
52047;SDS011;46904;49.438;8.752;2023-11-19T02:02:58;0.30;;;0.30;;
52047;SDS011;46904;49.438;8.752;2023-11-19T02:05:24;0.40;;;0.40;;
52047;SDS011;46904;49.438;8.752;2023-11-19T02:07:50;1.60;;;0.50;;
52047;SDS011;46904;49.438;8.752;2023-11-19T02:10:15;0.52;;;0.40;;
52047;SDS011;46904;49.438;8.752;2023-11-19T02:12:41;0.63;;;0.50;;
52047;SDS011;46904;49.438;8.752;2023-11-19T02:15:06;0.45;;;0.45;;
52047;SDS011;46904;49.438;8.752;2023-11-19T02:17:32;0.50;;;0.50;;
52047;SDS011;46904;49.438;8.752;2023-11-19T02:19:58;0.60;;;0.55;;
52047;SDS011;46904;49.438;8.752;2023-11-19T02:22:23;0.73;;;0.68;;
52047;SDS011;46904;49.438;8.752;2023-11-19T02:24:51;0.88;;;0.52;;
52047;SDS011;46904;49.438;8.752;2023-11-19T02:27:23;0.50;;;0.50;;
52047;SDS011;46904;49.438;8.752;2023-11-19T02:29:51;0.60;;;0.60;;
52047;SDS011;46904;49.438;8.752;2023-11-19T02:32:17;1.23;;;0.60;;
52047;SDS011;46904;49.438;8.752;2023-11-19T02:34:42;1.10;;;0.65;;
52047;SDS011;46904;49.438;8.752;2023-11-19T02:37:08;0.70;;;0.70;;
52047;SDS011;46904;49.438;8.752;2023-11-19T02:39:33;1.20;;;0.85;;
52047;SDS011;46904;49.438;8.752;2023-11-19T02:41:59;0.77;;;0.77;;
52047;SDS011;46904;49.438;8.752;2023-11-19T02:44:25;1.30;;;1.20;;
52047;SDS011;46904;49.438;8.752;2023-11-19T02:46:50;0.85;;;0.80;;
52047;SDS011;46904;49.438;8.752;2023-11-19T02:49:16;0.77;;;0.77;;
52047;SDS011;46904;49.438;8.752;2023-11-19T02:51:41;0.70;;;0.70;;
52047;SDS011;46904;49.438;8.752;2023-11-19T02:54:07;0.95;;;0.90;;
52047;SDS011;46904;49.438;8.752;2023-11-19T02:56:35;0.60;;;0.60;;
52047;SDS011;46904;49.438;8.752;2023-11-19T02:59:01;0.93;;;0.70;;
52047;SDS011;46904;49.438;8.752;2023-11-19T03:01:27;0.70;;;0.70;;
52047;SDS011;46904;49.438;8.752;2023-11-19T03:03:52;1.00;;;0.63;;
52047;SDS011;46904;49.438;8.752;2023-11-19T03:06:18;0.70;;;0.70;;
52047;SDS011;46904;49.438;8.752;2023-11-19T03:08:44;1.15;;;0.63;;
52047;SDS011;46904;49.438;8.752;2023-11-19T03:11:09;0.70;;;0.70;;
52047;SDS011;46904;49.438;8.752;2023-11-19T03:13:35;0.60;;;0.60;;
52047;SDS011;46904;49.438;8.752;2023-11-19T03:16:03;1.38;;;0.70;;
52047;SDS011;46904;49.438;8.752;2023-11-19T03:18:29;0.50;;;0.50;;
52047;SDS011;46904;49.438;8.752;2023-11-19T03:20:55;0.60;;;0.60;;
52047;SDS011;46904;49.438;8.752;2023-11-19T03:23:21;0.60;;;0.60;;
52047;SDS011;46904;49.438;8.752;2023-11-19T03:25:46;1.77;;;0.70;;
52047;SDS011;46904;49.438;8.752;2023-11-19T03:28:12;0.60;;;0.60;;
52047;SDS011;46904;49.438;8.752;2023-11-19T03:30:37;0.70;;;0.70;;
52047;SDS011;46904;49.438;8.752;2023-11-19T03:33:03;0.60;;;0.60;;
52047;SDS011;46904;49.438;8.752;2023-11-19T03:35:29;1.38;;;0.60;;
52047;SDS011;46904;49.438;8.752;2023-11-19T03:37:55;0.60;;;0.60;;
52047;SDS011;46904;49.438;8.752;2023-11-19T03:40:20;0.75;;;0.65;;
52047;SDS011;46904;49.438;8.752;2023-11-19T03:42:46;0.60;;;0.60;;
52047;SDS011;46904;49.438;8.752;2023-11-19T03:45:11;0.60;;;0.60;;
52047;SDS011;46904;49.438;8.752;2023-11-19T03:47:37;1.20;;;0.80;;
52047;SDS011;46904;49.438;8.752;2023-11-19T03:50:03;1.10;;;1.00;;
52047;SDS011;46904;49.438;8.752;2023-11-19T03:52:29;0.75;;;0.70;;
52047;SDS011;46904;49.438;8.752;2023-11-19T03:54:55;0.95;;;0.70;;
52047;SDS011;46904;49.438;8.752;2023-11-19T03:57:21;0.68;;;0.68;;
52047;SDS011;46904;49.438;8.752;2023-11-19T03:59:47;0.90;;;0.90;;
52047;SDS011;46904;49.438;8.752;2023-11-19T04:02:12;0.80;;;0.80;;
52047;SDS011;46904;49.438;8.752;2023-11-19T04:04:38;0.80;;;0.80;;
52047;SDS011;46904;49.438;8.752;2023-11-19T04:07:03;0.70;;;0.70;;
52047;SDS011;46904;49.438;8.752;2023-11-19T04:09:29;0.70;;;0.70;;
52047;SDS011;46904;49.438;8.752;2023-11-19T04:11:54;0.90;;;0.90;;
52047;SDS011;46904;49.438;8.752;2023-11-19T04:14:20;1.10;;;0.80;;
52047;SDS011;46904;49.438;8.752;2023-11-19T04:16:46;0.75;;;0.70;;
52047;SDS011;46904;49.438;8.752;2023-11-19T04:19:11;0.98;;;0.88;;
52047;SDS011;46904;49.438;8.752;2023-11-19T04:21:37;0.73;;;0.73;;
52047;SDS011;46904;49.438;8.752;2023-11-19T04:24:05;0.75;;;0.70;;
52047;SDS011;46904;49.438;8.752;2023-11-19T04:26:30;1.23;;;0.70;;
52047;SDS011;46904;49.438;8.752;2023-11-19T04:28:56;1.08;;;0.98;;
52047;SDS011;46904;49.438;8.752;2023-11-19T04:31:21;0.77;;;0.70;;
52047;SDS011;46904;49.438;8.752;2023-11-19T04:33:47;1.00;;;0.90;;
52047;SDS011;46904;49.438;8.752;2023-11-19T04:36:13;1.23;;;0.80;;
52047;SDS011;46904;49.438;8.752;2023-11-19T04:38:38;3.47;;;0.98;;
52047;SDS011;46904;49.438;8.752;2023-11-19T04:41:04;0.77;;;0.77;;
52047;SDS011;46904;49.438;8.752;2023-11-19T04:43:30;1.02;;;0.93;;
52047;SDS011;46904;49.438;8.752;2023-11-19T04:45:55;1.10;;;0.88;;
52047;SDS011;46904;49.438;8.752;2023-11-19T04:48:21;0.93;;;0.80;;
52047;SDS011;46904;49.438;8.752;2023-11-19T04:50:49;1.70;;;0.90;;
52047;SDS011;46904;49.438;8.752;2023-11-19T04:53:15;1.00;;;0.90;;
52047;SDS011;46904;49.438;8.752;2023-11-19T04:55:40;1.20;;;1.10;;
52047;SDS011;46904;49.438;8.752;2023-11-19T04:58:06;0.70;;;0.70;;
52047;SDS011;46904;49.438;8.752;2023-11-19T05:00:32;0.90;;;0.90;;
52047;SDS011;46904;49.438;8.752;2023-11-19T05:02:57;1.20;;;1.10;;
52047;SDS011;46904;49.438;8.752;2023-11-19T05:05:23;2.20;;;1.92;;
52047;SDS011;46904;49.438;8.752;2023-11-19T05:07:48;1.20;;;1.10;;
52047;SDS011;46904;49.438;8.752;2023-11-19T05:10:32;1.10;;;1.00;;
52047;SDS011;46904;49.438;8.752;2023-11-19T05:12:57;1.17;;;1.10;;
52047;SDS011;46904;49.438;8.752;2023-11-19T05:15:23;1.08;;;0.98;;
52047;SDS011;46904;49.438;8.752;2023-11-19T05:17:48;1.45;;;1.10;;
52047;SDS011;46904;49.438;8.752;2023-11-19T05:20:14;1.10;;;1.00;;
52047;SDS011;46904;49.438;8.752;2023-11-19T05:22:40;1.33;;;0.90;;
52047;SDS011;46904;49.438;8.752;2023-11-19T05:25:06;1.25;;;1.05;;
52047;SDS011;46904;49.438;8.752;2023-11-19T05:27:31;1.20;;;1.10;;
52047;SDS011;46904;49.438;8.752;2023-11-19T05:29:57;1.30;;;1.20;;
52047;SDS011;46904;49.438;8.752;2023-11-19T05:32:22;1.23;;;1.02;;
52047;SDS011;46904;49.438;8.752;2023-11-19T05:34:48;1.38;;;1.27;;
52047;SDS011;46904;49.438;8.752;2023-11-19T05:37:14;1.52;;;1.13;;
52047;SDS011;46904;49.438;8.752;2023-11-19T05:39:39;1.20;;;1.10;;
52047;SDS011;46904;49.438;8.752;2023-11-19T05:42:05;0.90;;;0.90;;
52047;SDS011;46904;49.438;8.752;2023-11-19T05:44:30;1.60;;;1.30;;
52047;SDS011;46904;49.438;8.752;2023-11-19T05:46:58;1.40;;;1.30;;
52047;SDS011;46904;49.438;8.752;2023-11-19T05:49:35;1.83;;;1.40;;
52047;SDS011;46904;49.438;8.752;2023-11-19T05:52:03;1.40;;;1.20;;
52047;SDS011;46904;49.438;8.752;2023-11-19T05:54:29;1.25;;;1.15;;
52047;SDS011;46904;49.438;8.752;2023-11-19T05:56:54;2.90;;;1.23;;
52047;SDS011;46904;49.438;8.752;2023-11-19T05:59:20;1.38;;;1.27;;
52047;SDS011;46904;49.438;8.752;2023-11-19T06:01:46;1.35;;;1.25;;
52047;SDS011;46904;49.438;8.752;2023-11-19T06:04:11;2.30;;;1.20;;
52047;SDS011;46904;49.438;8.752;2023-11-19T06:06:37;1.30;;;1.10;;
52047;SDS011;46904;49.438;8.752;2023-11-19T06:09:15;2.50;;;1.30;;
52047;SDS011;46904;49.438;8.752;2023-11-19T06:12:12;1.38;;;1.27;;
52047;SDS011;46904;49.438;8.752;2023-11-19T06:14:39;1.35;;;0.95;;
52047;SDS011;46904;49.438;8.752;2023-11-19T06:17:05;1.33;;;1.23;;
52047;SDS011;46904;49.438;8.752;2023-11-19T06:19:30;1.15;;;1.05;;
52047;SDS011;46904;49.438;8.752;2023-11-19T06:21:56;1.20;;;1.10;;
52047;SDS011;46904;49.438;8.752;2023-11-19T06:24:21;1.30;;;1.20;;
52047;SDS011;46904;49.438;8.752;2023-11-19T06:26:47;1.33;;;0.93;;
52047;SDS011;46904;49.438;8.752;2023-11-19T06:29:13;1.90;;;1.10;;
52047;SDS011;46904;49.438;8.752;2023-11-19T06:31:40;2.72;;;1.48;;
52047;SDS011;46904;49.438;8.752;2023-11-19T06:34:05;1.02;;;0.98;;
52047;SDS011;46904;49.438;8.752;2023-11-19T06:36:31;1.35;;;1.00;;
52047;SDS011;46904;49.438;8.752;2023-11-19T06:38:56;1.20;;;1.00;;
52047;SDS011;46904;49.438;8.752;2023-11-19T06:41:22;1.20;;;1.10;;
52047;SDS011;46904;49.438;8.752;2023-11-19T06:43:48;1.50;;;1.10;;
52047;SDS011;46904;49.438;8.752;2023-11-19T06:46:17;1.10;;;1.00;;
52047;SDS011;46904;49.438;8.752;2023-11-19T06:48:42;1.10;;;1.00;;
52047;SDS011;46904;49.438;8.752;2023-11-19T06:51:08;0.70;;;0.70;;
52047;SDS011;46904;49.438;8.752;2023-11-19T06:53:34;1.27;;;0.98;;
52047;SDS011;46904;49.438;8.752;2023-11-19T06:56:02;1.15;;;0.90;;
52047;SDS011;46904;49.438;8.752;2023-11-19T06:58:28;1.07;;;0.87;;
52047;SDS011;46904;49.438;8.752;2023-11-19T07:00:57;1.10;;;1.00;;
52047;SDS011;46904;49.438;8.752;2023-11-19T07:03:23;1.58;;;0.80;;
52047;SDS011;46904;49.438;8.752;2023-11-19T07:05:51;1.43;;;0.93;;
52047;SDS011;46904;49.438;8.752;2023-11-19T07:08:17;1.30;;;1.08;;
52047;SDS011;46904;49.438;8.752;2023-11-19T07:10:43;1.30;;;0.80;;
52047;SDS011;46904;49.438;8.752;2023-11-19T07:13:09;0.70;;;0.70;;
52047;SDS011;46904;49.438;8.752;2023-11-19T07:15:34;1.73;;;0.77;;
52047;SDS011;46904;49.438;8.752;2023-11-19T07:18:00;0.88;;;0.85;;
52047;SDS011;46904;49.438;8.752;2023-11-19T07:20:25;1.42;;;0.73;;
52047;SDS011;46904;49.438;8.752;2023-11-19T07:22:51;2.33;;;0.80;;
52047;SDS011;46904;49.438;8.752;2023-11-19T07:25:17;1.40;;;0.82;;
52047;SDS011;46904;49.438;8.752;2023-11-19T07:27:44;1.52;;;0.80;;
52047;SDS011;46904;49.438;8.752;2023-11-19T07:30:10;0.82;;;0.82;;
52047;SDS011;46904;49.438;8.752;2023-11-19T07:32:36;1.38;;;0.90;;
52047;SDS011;46904;49.438;8.752;2023-11-19T07:35:02;0.70;;;0.70;;
52047;SDS011;46904;49.438;8.752;2023-11-19T07:37:28;0.75;;;0.75;;
52047;SDS011;46904;49.438;8.752;2023-11-19T07:39:54;1.95;;;1.05;;
52047;SDS011;46904;49.438;8.752;2023-11-19T07:42:20;2.65;;;1.75;;
52047;SDS011;46904;49.438;8.752;2023-11-19T07:44:46;6.13;;;2.58;;
52047;SDS011;46904;49.438;8.752;2023-11-19T07:47:11;1.60;;;1.20;;
52047;SDS011;46904;49.438;8.752;2023-11-19T07:49:37;3.92;;;0.90;;
52047;SDS011;46904;49.438;8.752;2023-11-19T07:52:03;0.98;;;0.80;;
52047;SDS011;46904;49.438;8.752;2023-11-19T07:54:28;0.60;;;0.60;;
52047;SDS011;46904;49.438;8.752;2023-11-19T07:56:54;1.08;;;0.82;;
52047;SDS011;46904;49.438;8.752;2023-11-19T07:59:23;0.80;;;0.70;;
52047;SDS011;46904;49.438;8.752;2023-11-19T08:01:51;3.58;;;0.80;;
52047;SDS011;46904;49.438;8.752;2023-11-19T08:04:17;1.00;;;0.90;;
52047;SDS011;46904;49.438;8.752;2023-11-19T08:06:42;0.80;;;0.70;;
52047;SDS011;46904;49.438;8.752;2023-11-19T08:09:08;1.20;;;0.70;;
52047;SDS011;46904;49.438;8.752;2023-11-19T08:11:34;0.98;;;0.60;;
52047;SDS011;46904;49.438;8.752;2023-11-19T08:13:59;0.63;;;0.63;;
52047;SDS011;46904;49.438;8.752;2023-11-19T08:16:25;0.95;;;0.88;;
52047;SDS011;46904;49.438;8.752;2023-11-19T08:18:50;0.65;;;0.50;;
52047;SDS011;46904;49.438;8.752;2023-11-19T08:21:16;0.60;;;0.40;;
52047;SDS011;46904;49.438;8.752;2023-11-19T08:23:41;0.90;;;0.70;;
52047;SDS011;46904;49.438;8.752;2023-11-19T08:26:07;0.80;;;0.60;;
52047;SDS011;46904;49.438;8.752;2023-11-19T08:28:32;0.60;;;0.50;;
52047;SDS011;46904;49.438;8.752;2023-11-19T08:30:58;1.17;;;0.70;;
52047;SDS011;46904;49.438;8.752;2023-11-19T08:33:23;0.60;;;0.60;;
52047;SDS011;46904;49.438;8.752;2023-11-19T08:35:49;0.95;;;0.70;;
52047;SDS011;46904;49.438;8.752;2023-11-19T08:38:14;0.60;;;0.60;;
52047;SDS011;46904;49.438;8.752;2023-11-19T08:40:40;0.60;;;0.60;;
52047;SDS011;46904;49.438;8.752;2023-11-19T08:43:06;2.47;;;0.80;;
52047;SDS011;46904;49.438;8.752;2023-11-19T08:45:31;0.85;;;0.57;;
52047;SDS011;46904;49.438;8.752;2023-11-19T08:47:57;0.68;;;0.63;;
52047;SDS011;46904;49.438;8.752;2023-11-19T08:50:22;1.25;;;0.73;;
52047;SDS011;46904;49.438;8.752;2023-11-19T08:52:48;1.75;;;0.85;;
52047;SDS011;46904;49.438;8.752;2023-11-19T08:55:14;1.10;;;0.85;;
52047;SDS011;46904;49.438;8.752;2023-11-19T08:57:39;0.60;;;0.60;;
52047;SDS011;46904;49.438;8.752;2023-11-19T09:00:05;1.17;;;0.85;;
52047;SDS011;46904;49.438;8.752;2023-11-19T09:02:31;0.85;;;0.75;;
52047;SDS011;46904;49.438;8.752;2023-11-19T09:04:56;2.47;;;1.15;;
52047;SDS011;46904;49.438;8.752;2023-11-19T09:07:22;1.23;;;0.90;;
52047;SDS011;46904;49.438;8.752;2023-11-19T09:09:47;1.27;;;1.17;;
52047;SDS011;46904;49.438;8.752;2023-11-19T09:12:13;1.45;;;1.05;;
52047;SDS011;46904;49.438;8.752;2023-11-19T09:14:38;2.20;;;1.23;;
52047;SDS011;46904;49.438;8.752;2023-11-19T09:17:04;1.08;;;0.85;;
52047;SDS011;46904;49.438;8.752;2023-11-19T09:19:32;0.63;;;0.63;;
52047;SDS011;46904;49.438;8.752;2023-11-19T09:21:57;0.80;;;0.80;;
52047;SDS011;46904;49.438;8.752;2023-11-19T09:24:23;2.10;;;1.23;;
52047;SDS011;46904;49.438;8.752;2023-11-19T09:26:48;1.70;;;1.13;;
52047;SDS011;46904;49.438;8.752;2023-11-19T09:29:14;1.75;;;0.90;;
52047;SDS011;46904;49.438;8.752;2023-11-19T09:31:39;0.90;;;0.70;;
52047;SDS011;46904;49.438;8.752;2023-11-19T09:34:05;1.00;;;0.80;;
52047;SDS011;46904;49.438;8.752;2023-11-19T09:36:30;1.38;;;0.80;;
52047;SDS011;46904;49.438;8.752;2023-11-19T09:38:56;1.30;;;1.20;;
52047;SDS011;46904;49.438;8.752;2023-11-19T09:41:23;1.08;;;0.90;;
52047;SDS011;46904;49.438;8.752;2023-11-19T09:43:48;0.70;;;0.60;;
52047;SDS011;46904;49.438;8.752;2023-11-19T09:46:15;0.82;;;0.73;;
52047;SDS011;46904;49.438;8.752;2023-11-19T09:48:40;1.88;;;0.88;;
52047;SDS011;46904;49.438;8.752;2023-11-19T09:51:08;0.70;;;0.70;;
52047;SDS011;46904;49.438;8.752;2023-11-19T09:53:36;1.25;;;0.80;;
52047;SDS011;46904;49.438;8.752;2023-11-19T09:56:02;1.10;;;0.83;;
52047;SDS011;46904;49.438;8.752;2023-11-19T09:58:32;1.23;;;0.82;;
52047;SDS011;46904;49.438;8.752;2023-11-19T10:00:58;1.58;;;0.98;;
52047;SDS011;46904;49.438;8.752;2023-11-19T10:03:24;1.95;;;0.82;;
52047;SDS011;46904;49.438;8.752;2023-11-19T10:05:49;2.30;;;1.10;;
52047;SDS011;46904;49.438;8.752;2023-11-19T10:08:15;1.75;;;0.80;;
52047;SDS011;46904;49.438;8.752;2023-11-19T10:10:41;1.35;;;0.80;;
52047;SDS011;46904;49.438;8.752;2023-11-19T10:13:06;0.80;;;0.80;;
52047;SDS011;46904;49.438;8.752;2023-11-19T10:15:35;1.00;;;0.90;;
52047;SDS011;46904;49.438;8.752;2023-11-19T10:18:01;5.55;;;0.82;;
52047;SDS011;46904;49.438;8.752;2023-11-19T10:20:26;2.00;;;1.17;;
52047;SDS011;46904;49.438;8.752;2023-11-19T10:22:53;1.58;;;1.10;;
52047;SDS011;46904;49.438;8.752;2023-11-19T10:27:47;2.90;;;1.10;;
52047;SDS011;46904;49.438;8.752;2023-11-19T10:30:17;1.73;;;1.00;;
52047;SDS011;46904;49.438;8.752;2023-11-19T10:32:42;1.30;;;0.90;;
52047;SDS011;46904;49.438;8.752;2023-11-19T10:35:11;2.22;;;1.63;;
52047;SDS011;46904;49.438;8.752;2023-11-19T10:37:36;4.90;;;1.58;;
52047;SDS011;46904;49.438;8.752;2023-11-19T10:40:02;1.60;;;1.00;;
52047;SDS011;46904;49.438;8.752;2023-11-19T10:42:27;2.58;;;1.48;;
52047;SDS011;46904;49.438;8.752;2023-11-19T10:44:53;1.02;;;0.93;;
52047;SDS011;46904;49.438;8.752;2023-11-19T10:47:19;2.35;;;1.10;;
52047;SDS011;46904;49.438;8.752;2023-11-19T10:49:45;1.23;;;1.13;;
52047;SDS011;46904;49.438;8.752;2023-11-19T10:52:10;2.47;;;0.90;;
52047;SDS011;46904;49.438;8.752;2023-11-19T10:54:37;2.78;;;0.80;;
52047;SDS011;46904;49.438;8.752;2023-11-19T10:57:08;0.70;;;0.70;;
52047;SDS011;46904;49.438;8.752;2023-11-19T10:59:34;1.48;;;1.02;;
52047;SDS011;46904;49.438;8.752;2023-11-19T11:02:03;1.20;;;1.10;;
52047;SDS011;46904;49.438;8.752;2023-11-19T11:04:29;1.65;;;0.90;;
52047;SDS011;46904;49.438;8.752;2023-11-19T11:06:56;1.33;;;0.82;;
52047;SDS011;46904;49.438;8.752;2023-11-19T11:09:22;1.02;;;0.85;;
52047;SDS011;46904;49.438;8.752;2023-11-19T11:11:48;2.65;;;1.10;;
52047;SDS011;46904;49.438;8.752;2023-11-19T11:14:15;1.35;;;0.80;;
52047;SDS011;46904;49.438;8.752;2023-11-19T11:16:44;2.28;;;0.90;;
52047;SDS011;46904;49.438;8.752;2023-11-19T11:19:11;2.85;;;0.90;;
52047;SDS011;46904;49.438;8.752;2023-11-19T11:21:37;1.90;;;0.80;;
52047;SDS011;46904;49.438;8.752;2023-11-19T11:29:19;1.02;;;0.90;;
52047;SDS011;46904;49.438;8.752;2023-11-19T11:34:27;2.38;;;1.13;;
52047;SDS011;46904;49.438;8.752;2023-11-19T11:37:05;1.77;;;0.90;;
52047;SDS011;46904;49.438;8.752;2023-11-19T11:39:32;1.23;;;1.02;;
52047;SDS011;46904;49.438;8.752;2023-11-19T11:44:58;0.75;;;0.73;;
52047;SDS011;46904;49.438;8.752;2023-11-19T11:47:23;2.78;;;1.15;;
52047;SDS011;46904;49.438;8.752;2023-11-19T11:49:49;1.63;;;0.90;;
52047;SDS011;46904;49.438;8.752;2023-11-19T11:52:15;2.25;;;0.80;;
52047;SDS011;46904;49.438;8.752;2023-11-19T11:54:40;2.65;;;1.42;;
52047;SDS011;46904;49.438;8.752;2023-11-19T11:57:12;0.85;;;0.77;;
52047;SDS011;46904;49.438;8.752;2023-11-19T12:02:10;1.67;;;0.75;;
52047;SDS011;46904;49.438;8.752;2023-11-19T12:04:36;1.60;;;0.80;;
52047;SDS011;46904;49.438;8.752;2023-11-19T12:07:05;2.97;;;1.05;;
52047;SDS011;46904;49.438;8.752;2023-11-19T12:09:31;1.20;;;1.07;;
52047;SDS011;46904;49.438;8.752;2023-11-19T12:12:17;1.92;;;1.50;;
52047;SDS011;46904;49.438;8.752;2023-11-19T12:14:59;1.88;;;1.05;;
52047;SDS011;46904;49.438;8.752;2023-11-19T12:20:07;1.00;;;0.70;;
52047;SDS011;46904;49.438;8.752;2023-11-19T12:22:33;1.27;;;0.82;;
52047;SDS011;46904;49.438;8.752;2023-11-19T12:24:59;1.25;;;0.80;;
52047;SDS011;46904;49.438;8.752;2023-11-19T12:27:25;1.52;;;0.80;;
52047;SDS011;46904;49.438;8.752;2023-11-19T12:29:50;1.63;;;0.80;;
52047;SDS011;46904;49.438;8.752;2023-11-19T12:32:16;1.90;;;0.90;;
52047;SDS011;46904;49.438;8.752;2023-11-19T12:34:42;1.35;;;0.98;;
52047;SDS011;46904;49.438;8.752;2023-11-19T12:37:07;1.73;;;0.95;;
52047;SDS011;46904;49.438;8.752;2023-11-19T12:39:33;1.30;;;0.80;;
52047;SDS011;46904;49.438;8.752;2023-11-19T12:41:59;3.63;;;2.08;;
52047;SDS011;46904;49.438;8.752;2023-11-19T12:44:25;1.52;;;0.93;;
52047;SDS011;46904;49.438;8.752;2023-11-19T12:47:12;3.55;;;1.95;;
52047;SDS011;46904;49.438;8.752;2023-11-19T12:49:36;2.20;;;1.02;;
52047;SDS011;46904;49.438;8.752;2023-11-19T12:52:02;1.50;;;1.02;;
52047;SDS011;46904;49.438;8.752;2023-11-19T12:57:05;1.88;;;0.80;;
52047;SDS011;46904;49.438;8.752;2023-11-19T12:59:31;2.33;;;1.15;;
52047;SDS011;46904;49.438;8.752;2023-11-19T13:01:57;1.60;;;0.95;;
52047;SDS011;46904;49.438;8.752;2023-11-19T13:04:23;1.08;;;0.98;;
52047;SDS011;46904;49.438;8.752;2023-11-19T13:09:24;2.05;;;0.93;;
52047;SDS011;46904;49.438;8.752;2023-11-19T13:11:50;1.50;;;1.00;;
52047;SDS011;46904;49.438;8.752;2023-11-19T13:14:16;1.33;;;0.95;;
52047;SDS011;46904;49.438;8.752;2023-11-19T13:16:42;1.15;;;0.98;;
52047;SDS011;46904;49.438;8.752;2023-11-19T13:19:08;1.42;;;0.70;;
52047;SDS011;46904;49.438;8.752;2023-11-19T13:21:33;2.05;;;0.90;;
52047;SDS011;46904;49.438;8.752;2023-11-19T13:23:59;1.52;;;0.88;;
52047;SDS011;46904;49.438;8.752;2023-11-19T13:26:25;1.90;;;0.90;;
52047;SDS011;46904;49.438;8.752;2023-11-19T13:28:50;1.40;;;0.75;;
52047;SDS011;46904;49.438;8.752;2023-11-19T13:31:16;1.98;;;0.82;;
52047;SDS011;46904;49.438;8.752;2023-11-19T13:33:42;1.63;;;0.77;;
52047;SDS011;46904;49.438;8.752;2023-11-19T13:36:08;0.90;;;0.75;;
52047;SDS011;46904;49.438;8.752;2023-11-19T13:38:34;1.55;;;1.10;;
52047;SDS011;46904;49.438;8.752;2023-11-19T13:41:00;1.35;;;0.77;;
52047;SDS011;46904;49.438;8.752;2023-11-19T13:43:25;2.45;;;0.80;;
52047;SDS011;46904;49.438;8.752;2023-11-19T13:45:51;1.55;;;1.02;;
52047;SDS011;46904;49.438;8.752;2023-11-19T13:48:16;1.45;;;0.80;;
52047;SDS011;46904;49.438;8.752;2023-11-19T13:50:42;3.33;;;1.08;;
52047;SDS011;46904;49.438;8.752;2023-11-19T13:53:08;2.03;;;0.82;;
52047;SDS011;46904;49.438;8.752;2023-11-19T13:55:33;0.65;;;0.60;;
52047;SDS011;46904;49.438;8.752;2023-11-19T13:57:59;1.38;;;0.90;;
52047;SDS011;46904;49.438;8.752;2023-11-19T14:00:31;0.57;;;0.55;;
52047;SDS011;46904;49.438;8.752;2023-11-19T14:03:07;0.82;;;0.60;;
52047;SDS011;46904;49.438;8.752;2023-11-19T14:05:40;3.10;;;0.90;;
52047;SDS011;46904;49.438;8.752;2023-11-19T14:08:07;1.25;;;0.93;;
52047;SDS011;46904;49.438;8.752;2023-11-19T14:10:33;1.17;;;0.82;;
52047;SDS011;46904;49.438;8.752;2023-11-19T14:13:00;1.88;;;0.85;;
52047;SDS011;46904;49.438;8.752;2023-11-19T14:16:10;1.58;;;0.75;;
52047;SDS011;46904;49.438;8.752;2023-11-19T14:21:22;1.35;;;0.68;;
52047;SDS011;46904;49.438;8.752;2023-11-19T14:24:32;0.75;;;0.68;;
52047;SDS011;46904;49.438;8.752;2023-11-19T14:26:58;1.33;;;0.75;;
52047;SDS011;46904;49.438;8.752;2023-11-19T14:29:24;3.90;;;1.23;;
52047;SDS011;46904;49.438;8.752;2023-11-19T14:31:56;1.02;;;0.70;;
52047;SDS011;46904;49.438;8.752;2023-11-19T14:34:32;4.68;;;1.23;;
52047;SDS011;46904;49.438;8.752;2023-11-19T14:37:08;3.47;;;0.80;;
52047;SDS011;46904;49.438;8.752;2023-11-19T14:39:44;3.28;;;1.00;;
52047;SDS011;46904;49.438;8.752;2023-11-19T14:42:17;1.35;;;0.70;;
52047;SDS011;46904;49.438;8.752;2023-11-19T14:45:06;4.68;;;1.13;;
52047;SDS011;46904;49.438;8.752;2023-11-19T14:47:33;3.10;;;1.05;;
52047;SDS011;46904;49.438;8.752;2023-11-19T14:49:59;2.83;;;0.90;;
52047;SDS011;46904;49.438;8.752;2023-11-19T14:52:25;1.27;;;0.88;;
52047;SDS011;46904;49.438;8.752;2023-11-19T14:54:54;6.30;;;1.10;;
52047;SDS011;46904;49.438;8.752;2023-11-19T14:57:22;5.30;;;1.50;;
52047;SDS011;46904;49.438;8.752;2023-11-19T15:00:04;7.60;;;2.10;;
52047;SDS011;46904;49.438;8.752;2023-11-19T15:02:50;5.45;;;3.00;;
52047;SDS011;46904;49.438;8.752;2023-11-19T15:06:04;2.33;;;1.17;;
52047;SDS011;46904;49.438;8.752;2023-11-19T15:08:54;2.35;;;1.63;;
52047;SDS011;46904;49.438;8.752;2023-11-19T15:11:22;4.32;;;1.67;;
52047;SDS011;46904;49.438;8.752;2023-11-19T15:14:15;4.80;;;1.83;;
52047;SDS011;46904;49.438;8.752;2023-11-19T19:22:37;4.47;;;1.38;;